Time;durP1;ratioP1;P1;durP2;ratioP2;P2;SDS_P1;SDS_P2;PMS_P1;PMS_P2;Temp;Humidity;BMP_temperature;BMP_pressure;BME280_temperature;BME280_humidity;BME280_pressure;Samples;Min_cycle;Max_cycle;Signal;HPM_P1;HPM_P2
2021/09/06 00:00:07;;;;;;;7.55;5.22;;;;;;;20.02;50.65;100237.44;5049345;28;20592;-49
2021/09/06 00:02:32;;;;;;;9.65;5.32;;;;;;;19.93;51.11;100239.78;5049500;28;20025;-47
2021/09/06 00:04:58;;;;;;;9.13;5.20;;;;;;;20.17;50.79;100240.31;5053128;28;20044;-48
2021/09/06 00:07:23;;;;;;;9.73;5.10;;;;;;;20.03;51.01;100239.06;5053042;28;20032;-46
2021/09/06 00:09:52;;;;;;;6.97;4.90;;;;;;;20.02;50.95;100234.75;5053005;28;20056;-50
2021/09/06 00:12:17;;;;;;;7.20;4.97;;;;;;;20.26;50.26;100241.47;5052915;28;20091;-46
2021/09/06 00:14:43;;;;;;;8.95;5.30;;;;;;;19.99;51.42;100243.34;5052783;28;20279;-47
2021/09/06 00:17:08;;;;;;;7.47;4.95;;;;;;;19.94;51.84;100246.00;5052892;28;20021;-47
2021/09/06 00:19:34;;;;;;;7.25;5.15;;;;;;;20.18;51.40;100238.41;5053037;28;20029;-47
2021/09/06 00:21:59;;;;;;;8.65;5.10;;;;;;;20.06;51.50;100236.69;5052870;28;20520;-48
2021/09/06 00:24:25;;;;;;;9.27;5.25;;;;;;;19.98;51.90;100236.34;5052878;28;20017;-50
2021/09/06 00:26:50;;;;;;;6.78;5.20;;;;;;;20.28;51.17;100230.44;5052362;28;20473;-48
2021/09/06 00:29:16;;;;;;;7.43;5.15;;;;;;;20.44;51.16;100228.66;5052634;28;20032;-47
2021/09/06 00:31:41;;;;;;;7.20;5.35;;;;;;;20.43;50.79;100232.47;5052818;28;20032;-49
2021/09/06 00:34:06;;;;;;;8.90;5.38;;;;;;;20.26;51.96;100233.38;5052829;28;20028;-47
2021/09/06 00:36:32;;;;;;;7.38;5.10;;;;;;;20.10;52.00;100210.81;5052726;28;20036;-49
2021/09/06 00:38:57;;;;;;;8.18;5.45;;;;;;;20.25;52.37;100239.84;5053416;28;20029;-47
2021/09/06 00:41:24;;;;;;;9.00;5.57;;;;;;;20.42;51.64;100236.22;5053219;28;20531;-48
2021/09/06 00:43:50;;;;;;;9.43;5.60;;;;;;;20.54;51.48;100238.75;5053064;28;20024;-49
2021/09/06 00:46:16;;;;;;;10.63;5.82;;;;;;;20.72;51.37;100238.41;5051895;28;20043;-46
2021/09/06 00:48:41;;;;;;;8.35;5.65;;;;;;;20.54;51.95;100239.56;5036962;28;20022;-47
2021/09/06 00:51:07;;;;;;;8.52;5.78;;;;;;;20.46;52.67;100232.72;5032927;28;20496;-47
2021/09/06 00:53:32;;;;;;;10.50;5.93;;;;;;;20.77;51.95;100241.16;5032871;28;20026;-50
2021/09/06 00:55:58;;;;;;;10.18;6.03;;;;;;;20.81;52.52;100244.13;5032841;28;20040;-47
2021/09/06 00:58:24;;;;;;;9.40;6.05;;;;;;;21.06;51.53;100244.31;5032828;28;20064;-47
2021/09/06 01:00:49;;;;;;;8.43;5.80;;;;;;;20.75;52.57;100253.28;5032941;28;20495;-49
2021/09/06 01:03:15;;;;;;;8.23;5.93;;;;;;;20.91;52.18;100251.53;5032894;28;20030;-48
2021/09/06 01:05:40;;;;;;;8.55;5.93;;;;;;;20.98;52.11;100254.78;5032681;28;20025;-46
2021/09/06 01:08:06;;;;;;;11.57;5.93;;;;;;;20.80;53.12;100251.44;5032600;28;20033;-50
2021/09/06 01:10:31;;;;;;;9.40;5.70;;;;;;;20.41;53.80;100250.78;5032451;28;20168;-48
2021/09/06 01:12:57;;;;;;;8.10;5.75;;;;;;;20.55;53.63;100257.41;5032285;28;20156;-47
2021/09/06 01:15:22;;;;;;;10.77;6.35;;;;;;;20.52;53.53;100252.50;5032478;28;20119;-48
2021/09/06 01:17:48;;;;;;;9.25;5.68;;;;;;;20.64;53.26;100255.91;5032551;28;20030;-46
2021/09/06 01:20:13;;;;;;;12.30;6.68;;;;;;;20.86;52.86;100255.00;5032563;28;20037;-47
2021/09/06 01:22:39;;;;;;;9.48;6.57;;;;;;;20.62;53.21;100254.53;5032274;28;20473;-47
2021/09/06 01:25:05;;;;;;;7.90;5.80;;;;;;;20.62;53.55;100259.94;5032427;28;20025;-48
2021/09/06 01:27:30;;;;;;;10.10;6.18;;;;;;;21.01;52.68;100257.00;5032266;28;20021;-47
2021/09/06 01:29:56;;;;;;;8.00;6.35;;;;;;;21.04;52.00;100256.50;5032276;28;20470;-50
2021/09/06 01:32:21;;;;;;;10.25;6.18;;;;;;;20.63;53.03;100248.84;5032349;28;20030;-48
2021/09/06 01:34:47;;;;;;;8.32;6.20;;;;;;;20.55;53.74;100248.50;5032189;28;20343;-50
2021/09/06 01:37:12;;;;;;;10.75;6.45;;;;;;;20.55;53.61;100253.91;5032217;28;20123;-49
2021/09/06 01:39:38;;;;;;;9.73;6.28;;;;;;;20.94;52.32;100254.50;5032374;28;20030;-51
2021/09/06 01:42:03;;;;;;;10.20;6.25;;;;;;;20.55;53.91;100251.22;5031999;28;20550;-50
2021/09/06 01:44:28;;;;;;;10.98;6.75;;;;;;;20.70;52.89;100254.88;5030735;28;20183;-49
2021/09/06 01:46:54;;;;;;;10.63;6.40;;;;;;;20.65;53.44;100259.44;5032998;28;20021;-48
2021/09/06 01:49:19;;;;;;;9.43;6.05;;;;;;;21.00;52.65;100267.00;5051953;28;20029;-49
2021/09/06 01:51:45;;;;;;;8.82;6.30;;;;;;;21.12;52.00;100260.59;5051868;28;20434;-48
2021/09/06 01:54:10;;;;;;;8.85;6.47;;;;;;;21.11;52.38;100272.47;5051812;28;20025;-48
2021/09/06 01:56:36;;;;;;;11.18;6.50;;;;;;;21.29;51.72;100262.03;5051568;28;20025;-47
2021/09/06 01:59:02;;;;;;;9.65;6.50;;;;;;;21.04;52.12;100264.59;5051601;28;20017;-48
2021/09/06 02:01:27;;;;;;;9.52;6.57;;;;;;;20.69;53.23;100255.97;5051624;28;20435;-48
2021/09/06 02:03:53;;;;;;;9.43;6.57;;;;;;;20.95;52.88;100264.25;5051453;28;20017;-48
2021/09/06 02:06:18;;;;;;;10.18;6.50;;;;;;;21.28;51.62;100263.13;5051524;28;20455;-48
2021/09/06 02:08:44;;;;;;;8.32;6.07;;;;;;;21.04;52.28;100257.28;5051317;28;20040;-47
2021/09/06 02:11:09;;;;;;;10.00;6.15;;;;;;;20.89;52.74;100270.72;5051177;28;20032;-47
2021/09/06 02:13:35;;;;;;;13.20;6.63;;;;;;;20.76;53.43;100258.44;5051386;28;20059;-47
2021/09/06 02:16:00;;;;;;;11.02;6.63;;;;;;;20.95;52.85;100266.16;5051651;28;20486;-47
2021/09/06 02:18:26;;;;;;;10.20;6.90;;;;;;;21.08;52.16;100263.00;5051378;28;20115;-50
2021/09/06 02:20:51;;;;;;;11.25;6.60;;;;;;;21.01;52.38;100263.22;5051155;28;20501;-47
2021/09/06 02:23:17;;;;;;;9.98;6.53;;;;;;;20.86;52.84;100265.81;5051026;28;20025;-48
2021/09/06 02:25:42;;;;;;;9.57;6.50;;;;;;;20.69;53.39;100265.94;5050496;28;20029;-47
2021/09/06 02:28:07;;;;;;;9.45;6.45;;;;;;;20.85;52.84;100267.72;5051108;28;20480;-49
2021/09/06 02:30:33;;;;;;;8.32;6.63;;;;;;;20.90;52.65;100266.91;5051043;28;20085;-47
2021/09/06 02:32:58;;;;;;;10.85;6.63;;;;;;;21.21;51.88;100264.41;5050922;28;20032;-46
2021/09/06 02:35:24;;;;;;;10.82;6.60;;;;;;;20.93;52.48;100269.13;5051133;28;20024;-47
2021/09/06 02:37:49;;;;;;;10.73;6.70;;;;;;;20.86;52.48;100271.22;5050337;28;20017;-46
2021/09/06 02:40:16;;;;;;;10.50;6.40;;;;;;;20.95;52.13;100263.44;5051255;28;20024;-47
2021/09/06 02:42:42;;;;;;;10.60;6.88;;;;;;;21.18;51.53;100271.16;5050963;28;20028;-48
2021/09/06 02:45:08;;;;;;;10.18;6.47;;;;;;;21.17;51.49;100266.00;5050826;28;20029;-47
2021/09/06 02:47:33;;;;;;;10.82;6.28;;;;;;;21.09;51.52;100273.56;5044545;28;20014;-58
2021/09/06 02:50:01;;;;;;;10.10;6.25;;;;;;;20.94;51.68;100276.13;5030959;28;20430;-47
2021/09/06 02:52:27;;;;;;;10.02;6.40;;;;;;;21.35;50.76;100273.72;5030881;28;20040;-54
2021/09/06 02:54:52;;;;;;;10.75;6.18;;;;;;;21.20;51.32;100273.63;5030531;28;20398;-48
2021/09/06 02:57:18;;;;;;;10.75;6.63;;;;;;;21.23;51.12;100271.22;5030648;28;20020;-47
2021/09/06 02:59:43;;;;;;;9.57;6.10;;;;;;;21.35;50.51;100268.31;5030444;28;20091;-47
2021/09/06 03:02:09;;;;;;;10.75;6.57;;;;;;;21.28;50.61;100267.72;5030586;28;20029;-47
2021/09/06 03:04:34;;;;;;;11.40;6.60;;;;;;;21.20;50.91;100276.31;5030614;28;20450;-48
2021/09/06 03:06:59;;;;;;;9.60;6.75;;;;;;;21.22;50.89;100276.88;5030471;28;20044;-48
2021/09/06 03:09:25;;;;;;;10.30;6.20;;;;;;;21.26;50.96;100269.88;5030637;28;20107;-48
2021/09/06 03:11:50;;;;;;;12.57;6.25;;;;;;;21.40;50.66;100279.16;5030179;28;20393;-47
2021/09/06 03:14:16;;;;;;;9.75;6.43;;;;;;;21.45;50.60;100271.09;5030608;28;20498;-48
2021/09/06 03:16:41;;;;;;;10.32;6.93;;;;;;;21.43;50.59;100277.81;5030213;28;20115;-48
2021/09/06 03:19:07;;;;;;;11.13;6.57;;;;;;;21.28;50.55;100281.25;5030334;28;20028;-49
2021/09/06 03:21:32;;;;;;;9.27;6.50;;;;;;;21.28;50.98;100287.50;5030329;28;20017;-47
2021/09/06 03:23:58;;;;;;;9.57;6.10;;;;;;;21.45;50.40;100292.75;5030082;28;20025;-48
2021/09/06 03:26:23;;;;;;;9.93;6.53;;;;;;;21.54;49.94;100295.78;5029960;28;20030;-48
2021/09/06 03:28:49;;;;;;;11.02;6.60;;;;;;;21.43;50.18;100294.88;5030332;28;20044;-48
2021/09/06 03:31:14;;;;;;;10.23;6.82;;;;;;;20.99;51.94;100297.81;5030367;28;20029;-48
2021/09/06 03:33:40;;;;;;;10.63;6.40;;;;;;;21.13;51.29;100303.59;5030081;28;20477;-49
2021/09/06 03:36:05;;;;;;;12.45;6.68;;;;;;;21.48;50.73;100296.84;5030110;28;20029;-50
2021/09/06 03:38:31;;;;;;;12.30;6.57;;;;;;;21.45;50.16;100308.19;5030088;28;20048;-48
2021/09/06 03:40:57;;;;;;;10.85;6.57;;;;;;;21.56;49.93;100301.75;5029891;28;20079;-49
2021/09/06 03:43:22;;;;;;;9.18;6.60;;;;;;;21.43;50.14;100300.28;5029819;28;20025;-50
2021/09/06 03:45:48;;;;;;;9.63;6.75;;;;;;;21.16;50.75;100307.69;5029719;28;20029;-50
2021/09/06 03:48:13;;;;;;;10.93;6.45;;;;;;;21.05;51.33;100307.59;5041983;28;20021;-47
2021/09/06 03:50:38;;;;;;;11.68;6.88;;;;;;;21.11;51.17;100310.34;5049897;28;20471;-50
2021/09/06 03:53:04;;;;;;;10.02;6.80;;;;;;;21.26;50.91;100321.28;5049508;28;20021;-48
2021/09/06 03:55:29;;;;;;;10.45;6.30;;;;;;;21.27;50.70;100323.75;5049486;28;20041;-51
2021/09/06 03:57:55;;;;;;;9.00;6.25;;;;;;;21.37;50.21;100323.00;5049600;28;20013;-48
2021/09/06 04:00:21;;;;;;;10.45;5.97;;;;;;;21.31;50.46;100325.94;5049093;28;20543;-48
2021/09/06 04:02:46;;;;;;;9.85;6.18;;;;;;;20.98;51.25;100325.13;5049846;28;20021;-48
2021/09/06 04:05:11;;;;;;;10.20;6.38;;;;;;;21.04;51.28;100330.34;5049753;28;20397;-48
2021/09/06 04:07:37;;;;;;;10.30;6.80;;;;;;;21.13;51.13;100332.56;5049626;28;20059;-47
2021/09/06 04:10:03;;;;;;;10.52;6.50;;;;;;;21.26;50.64;100334.81;5049304;28;20041;-47
2021/09/06 04:12:29;;;;;;;11.75;6.90;;;;;;;21.39;50.24;100328.94;5049448;28;20021;-41
2021/09/06 04:14:54;;;;;;;10.05;6.57;;;;;;;21.31;49.92;100328.66;5049488;28;20083;-37
2021/09/06 04:17:20;;;;;;;11.15;6.90;;;;;;;21.33;50.26;100331.91;5041642;28;20120;-37
2021/09/06 04:19:45;;;;;;;9.98;6.60;;;;;;;21.39;49.80;100339.78;5029138;28;20021;-37
2021/09/06 04:22:11;;;;;;;15.63;10.38;;;;;;;21.24;50.13;100336.97;5028999;28;20033;-37
2021/09/06 04:24:36;;;;;;;10.88;6.68;;;;;;;21.45;49.41;100338.75;5028722;28;20037;-37
2021/09/06 04:27:02;;;;;;;11.32;6.40;;;;;;;21.45;49.37;100343.38;5029029;28;20033;-37
2021/09/06 04:29:27;;;;;;;13.82;7.20;;;;;;;21.56;49.56;100341.56;5028951;28;20013;-37
2021/09/06 04:31:53;;;;;;;10.43;7.25;;;;;;;21.74;49.12;100337.56;5028965;28;20108;-37
2021/09/06 04:34:18;;;;;;;10.18;6.63;;;;;;;21.72;49.15;100335.13;5029107;28;20025;-37
2021/09/06 04:36:44;;;;;;;11.05;6.60;;;;;;;21.78;49.23;100333.25;5028957;28;20029;-36
2021/09/06 04:39:09;;;;;;;11.90;6.65;;;;;;;21.82;49.40;100337.91;5039324;28;20108;-36
2021/09/06 04:41:35;;;;;;;11.00;7.10;;;;;;;21.92;48.98;100337.13;5048043;28;20028;-38
2021/09/06 04:44:00;;;;;;;13.68;7.18;;;;;;;22.20;48.33;100346.72;5047376;28;20108;-37
2021/09/06 04:46:26;;;;;;;14.10;7.35;;;;;;;22.03;48.90;100346.13;5048234;28;20087;-37
2021/09/06 04:48:51;;;;;;;23.60;11.52;;;;;;;22.19;48.41;100339.66;5050727;28;20032;-36
2021/09/06 04:51:17;;;;;;;11.98;8.02;;;;;;;22.28;47.89;100348.13;5052200;28;20373;-38
2021/09/06 04:53:42;;;;;;;16.58;11.57;;;;;;;22.28;47.58;100352.75;5052030;28;20079;-37
2021/09/06 04:56:08;;;;;;;13.35;7.28;;;;;;;22.15;47.76;100354.81;5051935;28;20126;-36
2021/09/06 04:58:33;;;;;;;10.55;6.68;;;;;;;22.24;47.38;100357.84;5051194;28;20032;-37
2021/09/06 05:00:59;;;;;;;12.23;8.45;;;;;;;22.27;47.97;100359.22;5050908;28;20032;-37
2021/09/06 05:03:24;;;;;;;18.52;10.20;;;;;;;22.40;47.69;100351.41;5051115;28;20091;-39
2021/09/06 05:05:50;;;;;;;23.95;11.98;;;;;;;22.45;47.70;100358.75;5051306;28;20028;-37
2021/09/06 05:08:15;;;;;;;15.10;8.98;;;;;;;22.58;47.45;100355.53;5051161;28;20086;-37
2021/09/06 05:10:41;;;;;;;40.65;25.90;;;;;;;22.16;48.36;100353.75;5051027;28;20456;-36
2021/09/06 05:13:06;;;;;;;24.15;9.95;;;;;;;22.37;48.20;100359.25;5051561;28;20108;-36
2021/09/06 05:15:32;;;;;;;21.17;8.35;;;;;;;22.50;47.82;100352.50;5051820;28;20025;-37
2021/09/06 05:17:57;;;;;;;46.72;33.03;;;;;;;22.50;47.82;100357.94;5039083;28;20024;-36
2021/09/06 05:20:23;;;;;;;21.33;12.35;;;;;;;22.20;48.81;100364.84;5031244;28;20021;-37
2021/09/06 05:22:48;;;;;;;20.05;10.32;;;;;;;22.23;49.01;100358.91;5031202;28;20021;-37
2021/09/06 05:25:14;;;;;;;16.05;9.85;;;;;;;22.60;47.75;100363.41;5031658;28;20456;-38
2021/09/06 05:27:39;;;;;;;20.52;9.57;;;;;;;22.53;48.30;100360.94;5031430;28;20405;-37
2021/09/06 05:30:05;;;;;;;24.85;9.32;;;;;;;22.67;47.55;100369.34;5031773;28;20071;-37
2021/09/06 05:32:31;;;;;;;25.13;9.75;;;;;;;22.41;48.49;100368.50;5031729;28;20033;-37
2021/09/06 05:34:56;;;;;;;19.92;10.27;;;;;;;21.06;52.05;100365.25;5031314;28;20029;-36
2021/09/06 05:37:22;;;;;;;23.52;10.73;;;;;;;21.93;49.63;100373.16;5031617;28;20018;-37
2021/09/06 05:39:47;;;;;;;23.92;10.98;;;;;;;22.31;49.05;100366.56;5031769;28;20029;-38
2021/09/06 05:42:13;;;;;;;19.08;11.63;;;;;;;22.37;48.80;100367.38;5031458;28;20473;-37
2021/09/06 05:44:38;;;;;;;19.02;11.20;;;;;;;22.04;49.84;100369.41;5031196;28;20048;-36
2021/09/06 05:47:03;;;;;;;20.85;11.77;;;;;;;21.98;49.61;100373.19;5033621;28;20021;-36
2021/09/06 05:49:29;;;;;;;23.70;10.77;;;;;;;22.60;47.84;100361.50;5050276;28;20613;-37
2021/09/06 05:51:54;;;;;;;16.63;9.88;;;;;;;22.94;47.06;100361.00;5050766;28;20039;-37
2021/09/06 05:54:20;;;;;;;19.52;10.13;;;;;;;22.97;46.71;100332.50;5051046;28;20024;-37
2021/09/06 05:56:45;;;;;;;18.08;9.40;;;;;;;23.22;46.37;100366.97;5051313;28;20031;-37
2021/09/06 05:59:11;;;;;;;17.15;8.90;;;;;;;23.44;45.73;100355.84;5050187;28;20621;-36
2021/09/06 06:01:36;;;;;;;15.48;8.80;;;;;;;23.85;44.86;100372.03;5050531;28;20033;-37
2021/09/06 06:04:02;;;;;;;21.90;9.30;;;;;;;24.12;44.40;100368.97;5049462;28;20033;-37
2021/09/06 06:06:28;;;;;;;20.58;9.18;;;;;;;24.32;43.37;100378.13;5051119;28;20029;-38
2021/09/06 06:08:54;;;;;;;14.45;8.70;;;;;;;24.23;44.54;100385.22;5050996;28;20107;-36
2021/09/06 06:11:19;;;;;;;17.25;8.50;;;;;;;24.40;43.26;100386.50;5050827;28;20033;-37
2021/09/06 06:13:45;;;;;;;16.75;7.88;;;;;;;24.42;43.35;100391.66;5049788;28;20032;-38
2021/09/06 06:16:10;;;;;;;17.95;8.60;;;;;;;24.43;43.07;100398.72;5049672;28;20021;-36
2021/09/06 06:18:36;;;;;;;16.13;8.07;;;;;;;24.55;42.76;100390.25;5049488;28;20477;-37
2021/09/06 06:21:01;;;;;;;15.88;7.93;;;;;;;24.39;43.18;100395.75;5049146;28;20036;-38
2021/09/06 06:23:27;;;;;;;16.00;7.82;;;;;;;24.56;43.06;100395.44;5049345;28;20025;-38
2021/09/06 06:25:52;;;;;;;18.13;11.88;;;;;;;25.00;42.71;100390.22;5049575;28;20032;-37
2021/09/06 06:28:17;;;;;;;29.30;16.42;;;;;;;25.12;41.70;100394.22;5049081;28;20321;-37
2021/09/06 06:30:43;;;;;;;13.43;7.68;;;;;;;25.20;40.01;100406.41;5049178;28;20040;-37
2021/09/06 06:33:08;;;;;;;13.73;6.72;;;;;;;25.37;39.52;100406.03;5049304;28;20037;-37
2021/09/06 06:35:34;;;;;;;15.27;7.18;;;;;;;25.29;39.68;100398.47;5049193;28;20021;-37
2021/09/06 06:37:59;;;;;;;9.80;5.00;;;;;;;25.18;36.13;100400.44;5049465;28;20071;-37
2021/09/06 06:40:25;;;;;;;10.43;5.90;;;;;;;24.86;39.33;100399.03;5049356;28;20029;-37
2021/09/06 06:42:50;;;;;;;9.10;5.05;;;;;;;25.17;37.28;100401.53;5049170;28;20063;-37
2021/09/06 06:45:16;;;;;;;9.80;5.30;;;;;;;25.24;36.86;100398.50;5049290;28;20029;-37
2021/09/06 06:47:41;;;;;;;8.60;5.07;;;;;;;25.03;37.13;100400.56;5041424;28;20052;-37
2021/09/06 06:50:07;;;;;;;7.43;4.78;;;;;;;25.02;36.90;100409.81;5029794;28;20650;-38
2021/09/06 06:52:33;;;;;;;7.45;5.13;;;;;;;24.67;35.58;100414.41;5029496;28;20026;-37
2021/09/06 06:54:58;;;;;;;8.23;4.88;;;;;;;23.96;36.33;100411.69;5030171;28;20121;-37
2021/09/06 06:57:23;;;;;;;7.57;4.88;;;;;;;23.99;37.05;100410.34;5029756;28;20017;-36
2021/09/06 06:59:49;;;;;;;6.07;4.63;;;;;;;23.42;39.26;100417.75;5029710;28;20057;-38
2021/09/06 07:02:14;;;;;;;8.85;4.60;;;;;;;23.32;37.89;100418.56;5029694;28;20029;-36
2021/09/06 07:04:40;;;;;;;10.75;4.65;;;;;;;23.90;36.92;100423.69;5032008;28;20466;-38
2021/09/06 07:07:05;;;;;;;6.82;4.88;;;;;;;22.70;38.82;100433.13;5029286;28;20017;-37
2021/09/06 07:09:31;;;;;;;7.40;5.03;;;;;;;22.79;39.34;100429.63;5029375;28;20482;-37
2021/09/06 07:11:59;;;;;;;7.88;4.70;;;;;;;23.64;37.56;100428.31;5033824;28;20094;-35
2021/09/06 07:14:25;;;;;;;18.88;5.45;;;;;;;22.95;38.75;100425.03;5038191;28;20108;-37
2021/09/06 07:16:50;;;;;;;6.28;4.72;;;;;;;22.93;38.13;100427.19;5036694;28;20040;-37
2021/09/06 07:19:16;;;;;;;8.63;4.60;;;;;;;22.91;38.46;100426.66;5030108;28;20072;-40
2021/09/06 07:21:41;;;;;;;6.43;4.50;;;;;;;23.10;38.18;100442.47;5029923;28;20036;-37
2021/09/06 07:24:07;;;;;;;9.07;4.60;;;;;;;22.74;38.29;100421.47;5029807;28;20052;-37
2021/09/06 07:26:32;;;;;;;5.57;4.25;;;;;;;23.09;38.06;100429.97;5029728;28;20079;-37
2021/09/06 07:28:59;;;;;;;7.65;4.88;;;;;;;22.94;38.18;100441.56;5028703;28;20056;-37
2021/09/06 07:31:24;;;;;;;6.82;4.82;;;;;;;22.85;38.60;100446.72;5036305;28;20020;-38
2021/09/06 07:33:50;;;;;;;8.38;5.10;;;;;;;22.69;39.44;100442.34;5039490;28;20024;-38
2021/09/06 07:36:15;;;;;;;7.07;4.63;;;;;;;22.95;38.55;100452.16;5037739;28;20022;-37
2021/09/06 07:38:41;;;;;;;7.63;4.97;;;;;;;22.36;39.31;100437.06;5038621;28;20018;-38
2021/09/06 07:41:06;;;;;;;9.25;4.80;;;;;;;22.46;39.73;100447.13;5041512;28;20120;-36
2021/09/06 07:43:31;;;;;;;8.95;5.03;;;;;;;22.98;38.64;100440.78;5036149;28;20409;-35
2021/09/06 07:45:57;;;;;;;8.73;4.90;;;;;;;23.70;37.30;100434.53;5038793;28;20028;-38
2021/09/06 07:48:22;;;;;;;10.25;5.05;;;;;;;23.80;36.72;100446.25;5037773;28;20040;-36
2021/09/06 07:50:48;;;;;;;7.15;4.53;;;;;;;23.84;36.80;100451.97;5039436;28;20396;-36
2021/09/06 07:53:14;;;;;;;7.85;4.63;;;;;;;23.80;37.04;100442.72;5048400;28;20021;-35
2021/09/06 07:55:39;;;;;;;6.55;4.85;;;;;;;23.76;37.42;100445.16;5048640;28;20032;-37
2021/09/06 07:58:05;;;;;;;8.48;4.93;;;;;;;23.57;37.68;100449.50;5048215;28;20075;-37
2021/09/06 08:00:30;;;;;;;6.47;4.88;;;;;;;23.70;37.61;100453.56;5048732;28;20248;-37
2021/09/06 08:02:56;;;;;;;8.80;5.05;;;;;;;23.65;37.62;100453.59;5047383;28;20025;-36
2021/09/06 08:05:23;;;;;;;8.25;5.20;;;;;;;23.86;37.37;100452.50;5048381;28;20435;-37
2021/09/06 08:07:48;;;;;;;8.07;5.32;;;;;;;23.46;38.34;100450.63;5028735;28;20436;-37
2021/09/06 08:10:14;;;;;;;6.97;4.95;;;;;;;23.83;38.21;100454.94;5028559;28;20060;-37
2021/09/06 08:12:40;;;;;;;7.15;4.90;;;;;;;23.71;37.66;100449.78;5028581;28;20021;-37
2021/09/06 08:15:06;;;;;;;7.13;5.00;;;;;;;23.87;37.59;100454.09;5028841;28;20044;-37
2021/09/06 08:17:34;;;;;;;7.65;5.22;;;;;;;23.30;37.90;100461.44;5028498;28;20670;-37
2021/09/06 08:19:59;;;;;;;7.50;4.90;;;;;;;23.09;38.67;100446.25;5028711;28;20029;-37
2021/09/06 08:22:25;;;;;;;6.70;4.50;;;;;;;23.29;38.07;100450.88;5044373;28;20104;-37
2021/09/06 08:24:50;;;;;;;7.30;5.18;;;;;;;23.02;38.33;100458.16;5052240;28;20029;-37
2021/09/06 08:27:16;;;;;;;8.13;4.82;;;;;;;22.99;38.77;100452.44;5052477;28;20083;-36
2021/09/06 08:29:41;;;;;;;7.50;4.97;;;;;;;22.53;39.88;100455.84;5052621;28;20507;-37
2021/09/06 08:32:07;;;;;;;6.20;4.70;;;;;;;22.79;39.07;100451.31;5042751;28;20439;-38
2021/09/06 08:34:32;;;;;;;7.10;4.85;;;;;;;22.31;40.11;100456.00;5051894;28;20024;-37
2021/09/06 08:36:58;;;;;;;8.20;4.60;;;;;;;22.48;40.25;100453.09;5052248;28;20025;-37
2021/09/06 08:39:23;;;;;;;7.25;4.35;;;;;;;22.74;38.88;100451.31;5052329;28;20032;-37
2021/09/06 08:41:49;;;;;;;7.75;4.78;;;;;;;22.30;40.04;100451.69;5052340;28;20029;-37
2021/09/06 08:44:15;;;;;;;6.07;4.90;;;;;;;23.17;38.85;100453.84;5050680;28;20058;-37
2021/09/06 08:46:40;;;;;;;7.32;4.60;;;;;;;23.19;38.40;100448.97;5052100;28;20059;-36
2021/09/06 08:49:06;;;;;;;7.82;4.88;;;;;;;22.97;38.93;100450.00;5031197;28;20060;-37
2021/09/06 08:51:33;;;;;;;6.82;4.80;;;;;;;23.16;39.19;100455.75;5031960;28;20474;-37
2021/09/06 08:53:58;;;;;;;6.50;4.40;;;;;;;23.18;38.44;100460.91;5031875;28;20032;-36
2021/09/06 08:56:30;;;;;;;8.55;4.60;;;;;;;23.40;38.78;100453.31;5030492;28;20033;-37
2021/09/06 08:58:56;;;;;;;8.48;4.75;;;;;;;24.01;38.29;100454.38;5031779;28;20029;-37
2021/09/06 09:01:22;;;;;;;40.95;27.75;;;;;;;24.87;36.01;100462.47;5031604;28;20021;-37
2021/09/06 09:03:47;;;;;;;7.00;5.00;;;;;;;24.13;36.79;100449.44;5030211;28;20033;-37
2021/09/06 09:06:13;;;;;;;7.20;4.75;;;;;;;24.59;36.04;100453.91;5031818;28;20029;-37
2021/09/06 09:08:38;;;;;;;6.65;4.68;;;;;;;24.49;36.34;100451.22;5031480;28;20029;-38
2021/09/06 09:11:05;;;;;;;7.22;4.30;;;;;;;24.74;35.52;100444.84;5031616;28;20033;-37
2021/09/06 09:13:32;;;;;;;8.18;4.75;;;;;;;25.14;35.18;100443.75;5033175;28;20379;-37
2021/09/06 09:15:58;;;;;;;6.82;4.95;;;;;;;25.54;33.98;100438.28;5042209;28;20055;-37
2021/09/06 09:18:28;;;;;;;7.75;4.70;;;;;;;25.61;33.64;100438.78;5050204;28;20028;-37
2021/09/06 09:20:59;;;;;;;6.75;4.32;;;;;;;25.88;33.06;100432.75;5034963;28;20544;-36
2021/09/06 09:23:44;;;;;;;6.90;4.68;;;;;;;26.70;32.19;100433.72;5043003;28;20417;-37
2021/09/06 09:26:09;;;;;;;11.20;4.55;;;;;;;26.60;32.69;100431.13;5044906;28;20032;-38
2021/09/06 09:28:39;;;;;;;8.52;5.05;;;;;;;26.23;32.65;100432.69;5033264;28;20026;-37
2021/09/06 09:31:13;;;;;;;6.32;4.50;;;;;;;25.81;33.49;100423.31;5036407;28;20052;-37
2021/09/06 09:33:46;;;;;;;6.43;4.43;;;;;;;26.16;33.38;100435.78;5041147;28;20029;-37
2021/09/06 09:36:12;;;;;;;7.97;4.63;;;;;;;26.63;32.72;100428.63;5045540;28;20123;-37
2021/09/06 09:38:38;;;;;;;7.82;5.00;;;;;;;26.55;32.10;100418.34;5034682;28;20459;-38
2021/09/06 09:41:16;;;;;;;6.25;4.70;;;;;;;26.99;32.54;100424.56;5045841;28;20021;-37
2021/09/06 09:43:41;;;;;;;7.25;4.78;;;;;;;26.63;31.80;100428.63;5043683;28;20510;-37
2021/09/06 09:46:07;;;;;;;6.47;4.72;;;;;;;26.62;31.83;100423.47;5037113;28;20545;-37
2021/09/06 09:48:32;;;;;;;7.63;4.88;;;;;;;27.02;32.09;100419.31;5030735;28;20405;-37
2021/09/06 09:50:58;;;;;;;8.77;6.60;;;;;;;27.65;31.39;100415.28;5014581;28;20120;-37
2021/09/06 09:53:23;;;;;;;11.48;7.70;;;;;;;27.76;31.31;100421.38;5038310;28;20480;-38
2021/09/06 09:55:49;;;;;;;8.75;5.32;;;;;;;28.24;29.22;100404.56;5039745;28;20036;-37
2021/09/06 09:58:16;;;;;;;6.63;4.82;;;;;;;28.34;29.30;100411.75;5044673;28;20047;-37
2021/09/06 10:00:43;;;;;;;8.85;5.20;;;;;;;27.69;29.75;100413.56;5032082;28;20482;-37
2021/09/06 10:03:08;;;;;;;5.50;4.55;;;;;;;27.19;29.88;100391.47;5036157;28;20033;-37
2021/09/06 10:05:34;;;;;;;6.80;5.07;;;;;;;27.81;29.15;100391.19;5023796;28;20087;-37
2021/09/06 10:08:00;;;;;;;8.20;4.70;;;;;;;28.72;28.06;100400.53;5041894;28;20017;-37
2021/09/06 10:10:25;;;;;;;6.35;5.03;;;;;;;29.26;27.03;100397.88;5016497;28;20056;-38
2021/09/06 10:13:04;;;;;;;7.20;4.68;;;;;;;29.00;26.58;100400.44;5047354;28;20401;-37
2021/09/06 10:15:30;;;;;;;6.07;4.28;;;;;;;28.91;25.88;100396.81;5039424;28;20024;-37
2021/09/06 10:17:55;;;;;;;5.13;4.20;;;;;;;29.11;25.93;100398.22;5036896;28;20017;-38
2021/09/06 10:20:22;;;;;;;5.00;4.00;;;;;;;28.34;25.40;100400.81;5045925;28;20035;-38
2021/09/06 10:22:48;;;;;;;7.05;3.95;;;;;;;28.25;26.24;100389.78;5031456;28;20033;-38
2021/09/06 10:25:19;;;;;;;6.72;4.47;;;;;;;28.82;25.84;100389.31;5028959;28;20053;-38
2021/09/06 10:27:57;;;;;;;6.00;4.20;;;;;;;28.62;25.95;100378.88;5030358;28;20053;-36
2021/09/06 10:30:41;;;;;;;6.68;3.75;;;;;;;28.20;25.82;100391.81;5030437;28;20029;-37
2021/09/06 10:33:23;;;;;;;4.88;3.75;;;;;;;28.10;26.14;100379.13;5030164;28;20478;-37
2021/09/06 10:35:48;;;;;;;5.00;3.92;;;;;;;27.85;26.73;100381.28;5039874;28;20024;-40
2021/09/06 10:38:14;;;;;;;5.35;4.13;;;;;;;28.80;25.57;100377.88;5037916;28;20079;-37
2021/09/06 10:40:41;;;;;;;5.95;4.40;;;;;;;29.26;25.73;100375.97;5036604;28;20497;-37
2021/09/06 10:43:17;;;;;;;7.90;3.97;;;;;;;29.10;26.34;100389.22;5038285;28;20040;-37
2021/09/06 10:45:43;;;;;;;6.63;4.32;;;;;;;29.82;25.36;100388.19;5036202;28;20099;-37
2021/09/06 10:48:14;;;;;;;6.32;4.28;;;;;;;29.67;25.18;100385.03;5039810;28;20010;-37
2021/09/06 10:50:39;;;;;;;5.82;4.18;;;;;;;29.90;24.72;100381.13;5019970;28;20397;-38
2021/09/06 10:53:05;;;;;;;4.85;4.22;;;;;;;29.12;25.64;100386.97;5038438;28;20021;-37
2021/09/06 10:55:30;;;;;;;6.20;4.32;;;;;;;29.17;26.05;100370.44;5038074;28;20378;-38
2021/09/06 10:57:55;;;;;;;6.07;4.13;;;;;;;29.79;25.94;100377.03;5038670;28;20028;-38
2021/09/06 11:00:22;;;;;;;6.82;4.80;;;;;;;29.97;25.48;100367.75;5039180;28;20513;-36
2021/09/06 11:02:49;;;;;;;5.35;4.22;;;;;;;30.57;24.79;100371.72;5037146;28;20037;-37
2021/09/06 11:05:22;;;;;;;5.15;4.13;;;;;;;29.63;25.22;100371.94;5038604;28;20025;-36
2021/09/06 11:07:48;;;;;;;5.93;4.15;;;;;;;29.56;25.83;100366.13;5039423;28;20060;-37
2021/09/06 11:10:16;;;;;;;5.70;4.50;;;;;;;28.50;26.09;100373.91;5038514;28;20543;-37
2021/09/06 11:12:55;;;;;;;6.05;4.32;;;;;;;28.85;26.21;100372.28;5039224;28;20183;-37
2021/09/06 11:15:31;;;;;;;6.17;4.70;;;;;;;28.53;26.95;100367.84;5039321;28;20489;-38